sensor_id;sensor_type;location;lat;lon;timestamp;temperature;humidity
25320;DHT22;13256;49.012;8.610;2022-12-29T00:01:09;13.80;99.90
25320;DHT22;13256;49.012;8.610;2022-12-29T00:03:36;13.70;99.90
25320;DHT22;13256;49.012;8.610;2022-12-29T00:06:07;13.70;99.90
25320;DHT22;13256;49.012;8.610;2022-12-29T00:08:34;13.60;99.90
25320;DHT22;13256;49.012;8.610;2022-12-29T00:11:09;13.60;99.90
25320;DHT22;13256;49.012;8.610;2022-12-29T00:13:40;13.70;99.90
25320;DHT22;13256;49.012;8.610;2022-12-29T00:16:27;13.60;99.90
25320;DHT22;13256;49.012;8.610;2022-12-29T00:18:54;13.60;99.90
25320;DHT22;13256;49.012;8.610;2022-12-29T00:21:24;13.60;99.90
25320;DHT22;13256;49.012;8.610;2022-12-29T00:24:18;13.60;99.90
25320;DHT22;13256;49.012;8.610;2022-12-29T00:29:49;13.60;99.90
25320;DHT22;13256;49.012;8.610;2022-12-29T00:32:36;13.60;99.90
25320;DHT22;13256;49.012;8.610;2022-12-29T00:35:31;13.50;99.90
25320;DHT22;13256;49.012;8.610;2022-12-29T00:38:05;13.50;99.90
25320;DHT22;13256;49.012;8.610;2022-12-29T00:40:50;13.50;99.90
25320;DHT22;13256;49.012;8.610;2022-12-29T00:43:37;13.50;99.90
25320;DHT22;13256;49.012;8.610;2022-12-29T00:46:22;13.40;99.90
25320;DHT22;13256;49.012;8.610;2022-12-29T00:48:49;13.50;99.90
25320;DHT22;13256;49.012;8.610;2022-12-29T00:51:38;13.50;99.90
25320;DHT22;13256;49.012;8.610;2022-12-29T00:54:08;13.60;99.90
25320;DHT22;13256;49.012;8.610;2022-12-29T00:56:35;13.60;99.90
25320;DHT22;13256;49.012;8.610;2022-12-29T00:59:03;13.40;99.90
25320;DHT22;13256;49.012;8.610;2022-12-29T01:01:33;13.40;99.90
25320;DHT22;13256;49.012;8.610;2022-12-29T01:04:03;13.40;99.90
25320;DHT22;13256;49.012;8.610;2022-12-29T01:06:31;13.30;99.90
25320;DHT22;13256;49.012;8.610;2022-12-29T01:08:59;13.10;99.90
25320;DHT22;13256;49.012;8.610;2022-12-29T01:11:45;13.00;99.90
25320;DHT22;13256;49.012;8.610;2022-12-29T01:14:12;13.00;99.90
25320;DHT22;13256;49.012;8.610;2022-12-29T01:16:38;12.90;99.90
25320;DHT22;13256;49.012;8.610;2022-12-29T01:19:05;12.80;99.90
25320;DHT22;13256;49.012;8.610;2022-12-29T01:21:36;12.70;99.90
25320;DHT22;13256;49.012;8.610;2022-12-29T01:24:03;12.60;99.90
25320;DHT22;13256;49.012;8.610;2022-12-29T01:26:30;12.50;99.90
25320;DHT22;13256;49.012;8.610;2022-12-29T01:28:57;12.40;99.90
25320;DHT22;13256;49.012;8.610;2022-12-29T01:31:25;12.40;99.90
25320;DHT22;13256;49.012;8.610;2022-12-29T01:33:53;12.40;99.90
25320;DHT22;13256;49.012;8.610;2022-12-29T01:36:28;12.40;99.90
25320;DHT22;13256;49.012;8.610;2022-12-29T01:38:55;12.40;99.90
25320;DHT22;13256;49.012;8.610;2022-12-29T01:41:22;12.40;99.90
25320;DHT22;13256;49.012;8.610;2022-12-29T01:43:52;12.40;99.90
25320;DHT22;13256;49.012;8.610;2022-12-29T01:46:36;12.30;99.90
25320;DHT22;13256;49.012;8.610;2022-12-29T01:49:13;12.30;99.90
25320;DHT22;13256;49.012;8.610;2022-12-29T01:51:57;12.20;99.90
25320;DHT22;13256;49.012;8.610;2022-12-29T01:54:38;12.20;99.90
25320;DHT22;13256;49.012;8.610;2022-12-29T01:57:35;12.30;99.90
25320;DHT22;13256;49.012;8.610;2022-12-29T02:00:08;12.30;99.90
25320;DHT22;13256;49.012;8.610;2022-12-29T02:02:48;12.30;99.90
25320;DHT22;13256;49.012;8.610;2022-12-29T02:08:06;12.30;99.90
25320;DHT22;13256;49.012;8.610;2022-12-29T02:10:37;12.40;99.90
25320;DHT22;13256;49.012;8.610;2022-12-29T02:13:07;12.40;99.90
25320;DHT22;13256;49.012;8.610;2022-12-29T02:27:01;12.50;99.90
25320;DHT22;13256;49.012;8.610;2022-12-29T02:41:41;12.60;99.90
25320;DHT22;13256;49.012;8.610;2022-12-29T02:49:57;12.60;99.90
25320;DHT22;13256;49.012;8.610;2022-12-29T02:52:39;12.60;99.90
25320;DHT22;13256;49.012;8.610;2022-12-29T02:55:11;12.50;99.90
25320;DHT22;13256;49.012;8.610;2022-12-29T02:57:38;12.50;99.90
25320;DHT22;13256;49.012;8.610;2022-12-29T03:00:14;12.60;99.90
25320;DHT22;13256;49.012;8.610;2022-12-29T03:03:08;12.80;99.90
25320;DHT22;13256;49.012;8.610;2022-12-29T03:06:03;12.90;99.90
25320;DHT22;13256;49.012;8.610;2022-12-29T03:08:47;12.90;99.90
25320;DHT22;13256;49.012;8.610;2022-12-29T03:11:16;12.90;99.90
25320;DHT22;13256;49.012;8.610;2022-12-29T03:14:26;12.80;99.90
25320;DHT22;13256;49.012;8.610;2022-12-29T03:17:46;12.80;99.90
25320;DHT22;13256;49.012;8.610;2022-12-29T03:20:19;12.80;99.90
25320;DHT22;13256;49.012;8.610;2022-12-29T03:22:51;12.80;99.90
25320;DHT22;13256;49.012;8.610;2022-12-29T03:25:34;12.80;99.90
25320;DHT22;13256;49.012;8.610;2022-12-29T03:28:19;12.70;99.90
25320;DHT22;13256;49.012;8.610;2022-12-29T03:30:47;12.70;99.90
25320;DHT22;13256;49.012;8.610;2022-12-29T03:33:21;12.70;99.90
25320;DHT22;13256;49.012;8.610;2022-12-29T03:35:50;12.80;99.90
25320;DHT22;13256;49.012;8.610;2022-12-29T03:38:24;12.80;99.90
25320;DHT22;13256;49.012;8.610;2022-12-29T03:40:56;12.80;99.90
25320;DHT22;13256;49.012;8.610;2022-12-29T03:43:27;12.90;99.90
25320;DHT22;13256;49.012;8.610;2022-12-29T03:45:54;12.90;99.90
25320;DHT22;13256;49.012;8.610;2022-12-29T03:48:23;12.90;99.90
25320;DHT22;13256;49.012;8.610;2022-12-29T03:50:52;12.90;99.90
25320;DHT22;13256;49.012;8.610;2022-12-29T03:53:19;12.90;99.90
25320;DHT22;13256;49.012;8.610;2022-12-29T03:55:47;12.80;99.90
25320;DHT22;13256;49.012;8.610;2022-12-29T03:58:14;12.90;99.90
25320;DHT22;13256;49.012;8.610;2022-12-29T04:00:51;13.00;99.90
25320;DHT22;13256;49.012;8.610;2022-12-29T04:03:18;13.00;99.90
25320;DHT22;13256;49.012;8.610;2022-12-29T04:05:45;13.00;99.90
25320;DHT22;13256;49.012;8.610;2022-12-29T04:08:14;12.90;99.90
25320;DHT22;13256;49.012;8.610;2022-12-29T04:10:42;12.90;99.90
25320;DHT22;13256;49.012;8.610;2022-12-29T04:13:09;12.90;99.90
25320;DHT22;13256;49.012;8.610;2022-12-29T04:15:36;12.90;99.90
25320;DHT22;13256;49.012;8.610;2022-12-29T04:18:03;12.90;99.90
25320;DHT22;13256;49.012;8.610;2022-12-29T04:20:33;13.00;99.90
25320;DHT22;13256;49.012;8.610;2022-12-29T04:23:23;13.00;99.90
25320;DHT22;13256;49.012;8.610;2022-12-29T04:25:51;13.00;99.90
25320;DHT22;13256;49.012;8.610;2022-12-29T04:28:18;13.00;99.90
25320;DHT22;13256;49.012;8.610;2022-12-29T04:31:14;13.00;99.90
25320;DHT22;13256;49.012;8.610;2022-12-29T04:33:51;13.00;99.90
25320;DHT22;13256;49.012;8.610;2022-12-29T04:36:17;13.00;99.90
25320;DHT22;13256;49.012;8.610;2022-12-29T04:38:47;13.00;99.90
25320;DHT22;13256;49.012;8.610;2022-12-29T04:41:14;13.00;99.90
25320;DHT22;13256;49.012;8.610;2022-12-29T04:43:41;13.10;99.90
25320;DHT22;13256;49.012;8.610;2022-12-29T04:46:17;13.10;99.90
25320;DHT22;13256;49.012;8.610;2022-12-29T04:48:52;13.20;99.90
25320;DHT22;13256;49.012;8.610;2022-12-29T04:51:31;13.30;99.90
25320;DHT22;13256;49.012;8.610;2022-12-29T04:54:00;13.20;99.90
25320;DHT22;13256;49.012;8.610;2022-12-29T04:56:31;13.10;99.90
25320;DHT22;13256;49.012;8.610;2022-12-29T04:59:05;13.10;99.90
25320;DHT22;13256;49.012;8.610;2022-12-29T05:01:32;13.10;99.90
25320;DHT22;13256;49.012;8.610;2022-12-29T05:04:00;13.20;99.90
25320;DHT22;13256;49.012;8.610;2022-12-29T05:06:27;13.20;99.90
25320;DHT22;13256;49.012;8.610;2022-12-29T05:08:54;13.20;99.90
25320;DHT22;13256;49.012;8.610;2022-12-29T05:11:24;13.10;99.90
25320;DHT22;13256;49.012;8.610;2022-12-29T05:13:53;13.10;99.90
25320;DHT22;13256;49.012;8.610;2022-12-29T05:16:24;13.10;99.90
25320;DHT22;13256;49.012;8.610;2022-12-29T05:18:55;13.10;99.90
25320;DHT22;13256;49.012;8.610;2022-12-29T05:21:27;13.10;99.90
25320;DHT22;13256;49.012;8.610;2022-12-29T05:23:57;13.20;99.90
25320;DHT22;13256;49.012;8.610;2022-12-29T05:26:25;13.20;99.90
25320;DHT22;13256;49.012;8.610;2022-12-29T05:29:25;13.10;99.90
25320;DHT22;13256;49.012;8.610;2022-12-29T05:32:00;13.10;99.90
25320;DHT22;13256;49.012;8.610;2022-12-29T05:34:29;13.00;99.90
25320;DHT22;13256;49.012;8.610;2022-12-29T05:36:59;13.00;99.90
25320;DHT22;13256;49.012;8.610;2022-12-29T05:39:33;13.00;99.90
25320;DHT22;13256;49.012;8.610;2022-12-29T05:42:06;13.10;99.90
25320;DHT22;13256;49.012;8.610;2022-12-29T05:44:58;13.10;99.90
25320;DHT22;13256;49.012;8.610;2022-12-29T05:47:40;13.20;99.90
25320;DHT22;13256;49.012;8.610;2022-12-29T05:50:31;13.10;99.90
25320;DHT22;13256;49.012;8.610;2022-12-29T05:53:15;13.20;99.90
25320;DHT22;13256;49.012;8.610;2022-12-29T05:55:46;13.20;99.90
25320;DHT22;13256;49.012;8.610;2022-12-29T05:58:19;13.20;99.90
25320;DHT22;13256;49.012;8.610;2022-12-29T06:00:55;13.20;99.90
25320;DHT22;13256;49.012;8.610;2022-12-29T06:03:28;13.20;99.90
25320;DHT22;13256;49.012;8.610;2022-12-29T06:05:58;13.20;99.90
25320;DHT22;13256;49.012;8.610;2022-12-29T06:08:29;13.30;99.90
25320;DHT22;13256;49.012;8.610;2022-12-29T06:10:56;13.30;99.90
25320;DHT22;13256;49.012;8.610;2022-12-29T06:13:24;13.30;99.90
25320;DHT22;13256;49.012;8.610;2022-12-29T06:15:54;13.30;99.90
25320;DHT22;13256;49.012;8.610;2022-12-29T06:18:25;13.30;99.90
25320;DHT22;13256;49.012;8.610;2022-12-29T06:21:00;13.30;99.90
25320;DHT22;13256;49.012;8.610;2022-12-29T06:23:29;13.50;99.90
25320;DHT22;13256;49.012;8.610;2022-12-29T06:25:56;13.50;99.90
25320;DHT22;13256;49.012;8.610;2022-12-29T06:28:50;13.40;99.90
25320;DHT22;13256;49.012;8.610;2022-12-29T06:31:20;13.50;99.90
25320;DHT22;13256;49.012;8.610;2022-12-29T06:33:48;13.50;99.90
25320;DHT22;13256;49.012;8.610;2022-12-29T06:36:17;13.50;99.90
25320;DHT22;13256;49.012;8.610;2022-12-29T06:38:45;13.50;99.90
25320;DHT22;13256;49.012;8.610;2022-12-29T06:41:16;13.50;99.90
25320;DHT22;13256;49.012;8.610;2022-12-29T06:44:15;13.50;99.90
25320;DHT22;13256;49.012;8.610;2022-12-29T06:47:26;13.50;99.90
25320;DHT22;13256;49.012;8.610;2022-12-29T06:49:53;13.50;99.90
25320;DHT22;13256;49.012;8.610;2022-12-29T06:52:22;13.50;99.90
25320;DHT22;13256;49.012;8.610;2022-12-29T06:54:54;13.50;99.90
25320;DHT22;13256;49.012;8.610;2022-12-29T06:57:21;13.50;99.90
25320;DHT22;13256;49.012;8.610;2022-12-29T06:59:49;13.50;99.90
25320;DHT22;13256;49.012;8.610;2022-12-29T07:02:22;13.50;99.90
25320;DHT22;13256;49.012;8.610;2022-12-29T07:04:53;13.60;99.90
25320;DHT22;13256;49.012;8.610;2022-12-29T07:07:21;13.60;99.90
25320;DHT22;13256;49.012;8.610;2022-12-29T07:09:54;13.70;99.90
25320;DHT22;13256;49.012;8.610;2022-12-29T07:12:25;13.70;99.90
25320;DHT22;13256;49.012;8.610;2022-12-29T07:14:51;13.60;99.90
25320;DHT22;13256;49.012;8.610;2022-12-29T07:17:27;13.60;99.90
25320;DHT22;13256;49.012;8.610;2022-12-29T07:19:54;13.50;99.90
25320;DHT22;13256;49.012;8.610;2022-12-29T07:22:25;13.50;99.90
25320;DHT22;13256;49.012;8.610;2022-12-29T07:24:53;13.60;99.90
25320;DHT22;13256;49.012;8.610;2022-12-29T07:27:20;13.60;99.90
25320;DHT22;13256;49.012;8.610;2022-12-29T07:29:46;13.70;99.90
25320;DHT22;13256;49.012;8.610;2022-12-29T07:32:19;13.70;99.90
25320;DHT22;13256;49.012;8.610;2022-12-29T07:34:46;13.80;99.90
25320;DHT22;13256;49.012;8.610;2022-12-29T07:37:17;13.80;99.90
25320;DHT22;13256;49.012;8.610;2022-12-29T07:39:45;13.80;99.90
25320;DHT22;13256;49.012;8.610;2022-12-29T07:42:16;13.80;99.90
25320;DHT22;13256;49.012;8.610;2022-12-29T07:44:53;13.80;99.90
25320;DHT22;13256;49.012;8.610;2022-12-29T07:47:32;13.90;99.90
25320;DHT22;13256;49.012;8.610;2022-12-29T07:49:59;13.90;99.90
25320;DHT22;13256;49.012;8.610;2022-12-29T07:52:28;13.90;99.90
25320;DHT22;13256;49.012;8.610;2022-12-29T07:54:56;14.00;99.90
25320;DHT22;13256;49.012;8.610;2022-12-29T07:57:54;14.00;99.90
25320;DHT22;13256;49.012;8.610;2022-12-29T08:00:22;14.00;99.90
25320;DHT22;13256;49.012;8.610;2022-12-29T08:02:51;14.00;99.90
25320;DHT22;13256;49.012;8.610;2022-12-29T08:05:18;14.00;99.90
25320;DHT22;13256;49.012;8.610;2022-12-29T08:08:17;13.90;99.90
25320;DHT22;13256;49.012;8.610;2022-12-29T08:10:44;14.00;99.90
25320;DHT22;13256;49.012;8.610;2022-12-29T08:13:20;14.00;99.90
25320;DHT22;13256;49.012;8.610;2022-12-29T08:15:47;14.10;99.90
25320;DHT22;13256;49.012;8.610;2022-12-29T08:18:14;14.10;99.90
25320;DHT22;13256;49.012;8.610;2022-12-29T08:20:46;14.10;99.90
25320;DHT22;13256;49.012;8.610;2022-12-29T08:23:23;14.20;99.90
25320;DHT22;13256;49.012;8.610;2022-12-29T08:26:00;14.30;99.90
25320;DHT22;13256;49.012;8.610;2022-12-29T08:28:31;14.20;99.90
25320;DHT22;13256;49.012;8.610;2022-12-29T08:31:01;14.30;99.90
25320;DHT22;13256;49.012;8.610;2022-12-29T08:33:30;14.20;99.90
25320;DHT22;13256;49.012;8.610;2022-12-29T08:36:01;14.20;99.90
25320;DHT22;13256;49.012;8.610;2022-12-29T08:38:28;14.20;99.90
25320;DHT22;13256;49.012;8.610;2022-12-29T08:41:01;14.10;99.90
25320;DHT22;13256;49.012;8.610;2022-12-29T08:43:29;14.00;99.90
25320;DHT22;13256;49.012;8.610;2022-12-29T08:46:00;14.00;99.90
25320;DHT22;13256;49.012;8.610;2022-12-29T08:48:34;14.10;99.90
25320;DHT22;13256;49.012;8.610;2022-12-29T08:51:14;14.10;99.90
25320;DHT22;13256;49.012;8.610;2022-12-29T08:53:53;14.10;99.90
25320;DHT22;13256;49.012;8.610;2022-12-29T08:56:21;14.10;99.90
25320;DHT22;13256;49.012;8.610;2022-12-29T08:58:57;14.10;99.90
25320;DHT22;13256;49.012;8.610;2022-12-29T09:01:26;14.10;99.90
25320;DHT22;13256;49.012;8.610;2022-12-29T09:03:53;14.10;99.90
25320;DHT22;13256;49.012;8.610;2022-12-29T09:06:41;14.10;99.90
25320;DHT22;13256;49.012;8.610;2022-12-29T09:09:13;14.10;99.90
25320;DHT22;13256;49.012;8.610;2022-12-29T09:11:41;14.10;99.90
25320;DHT22;13256;49.012;8.610;2022-12-29T09:14:09;14.10;99.90
25320;DHT22;13256;49.012;8.610;2022-12-29T09:16:39;14.20;99.90
25320;DHT22;13256;49.012;8.610;2022-12-29T09:19:25;14.10;99.90
25320;DHT22;13256;49.012;8.610;2022-12-29T09:21:51;14.10;99.90
25320;DHT22;13256;49.012;8.610;2022-12-29T09:24:21;14.10;99.90
25320;DHT22;13256;49.012;8.610;2022-12-29T09:26:53;14.10;99.90
25320;DHT22;13256;49.012;8.610;2022-12-29T09:29:24;14.10;99.90
25320;DHT22;13256;49.012;8.610;2022-12-29T09:31:56;14.10;99.90
25320;DHT22;13256;49.012;8.610;2022-12-29T09:34:24;14.10;99.90
25320;DHT22;13256;49.012;8.610;2022-12-29T09:36:53;14.10;99.90
25320;DHT22;13256;49.012;8.610;2022-12-29T09:39:22;14.00;99.90
25320;DHT22;13256;49.012;8.610;2022-12-29T09:50:44;14.00;99.90
25320;DHT22;13256;49.012;8.610;2022-12-29T09:55:58;14.00;99.90
25320;DHT22;13256;49.012;8.610;2022-12-29T09:58:50;14.00;99.90
25320;DHT22;13256;49.012;8.610;2022-12-29T10:01:38;14.00;99.90
25320;DHT22;13256;49.012;8.610;2022-12-29T10:04:10;14.00;99.90
25320;DHT22;13256;49.012;8.610;2022-12-29T10:06:51;14.10;99.90
25320;DHT22;13256;49.012;8.610;2022-12-29T10:15:39;14.20;99.90
25320;DHT22;13256;49.012;8.610;2022-12-29T10:21:14;14.10;99.90
25320;DHT22;13256;49.012;8.610;2022-12-29T10:23:52;14.10;99.90
25320;DHT22;13256;49.012;8.610;2022-12-29T10:26:23;14.00;99.90
25320;DHT22;13256;49.012;8.610;2022-12-29T10:31:32;14.00;99.90
25320;DHT22;13256;49.012;8.610;2022-12-29T10:34:10;14.00;99.90
25320;DHT22;13256;49.012;8.610;2022-12-29T10:36:46;14.00;99.90
25320;DHT22;13256;49.012;8.610;2022-12-29T10:45:00;14.00;99.90
25320;DHT22;13256;49.012;8.610;2022-12-29T10:47:34;14.00;99.90
25320;DHT22;13256;49.012;8.610;2022-12-29T10:50:06;14.10;99.90
25320;DHT22;13256;49.012;8.610;2022-12-29T10:52:35;14.10;99.90
25320;DHT22;13256;49.012;8.610;2022-12-29T10:55:15;14.10;99.90
25320;DHT22;13256;49.012;8.610;2022-12-29T10:57:48;14.00;99.90
25320;DHT22;13256;49.012;8.610;2022-12-29T11:00:19;14.00;99.90
25320;DHT22;13256;49.012;8.610;2022-12-29T11:06:09;13.90;99.90
25320;DHT22;13256;49.012;8.610;2022-12-29T11:08:59;13.90;99.90
25320;DHT22;13256;49.012;8.610;2022-12-29T11:11:36;13.80;99.90
25320;DHT22;13256;49.012;8.610;2022-12-29T11:14:26;13.80;99.90
25320;DHT22;13256;49.012;8.610;2022-12-29T11:16:59;13.80;99.90
25320;DHT22;13256;49.012;8.610;2022-12-29T11:19:33;13.80;99.90
25320;DHT22;13256;49.012;8.610;2022-12-29T11:22:19;13.80;99.90
25320;DHT22;13256;49.012;8.610;2022-12-29T11:24:50;13.80;99.90
25320;DHT22;13256;49.012;8.610;2022-12-29T11:27:23;13.70;99.90
25320;DHT22;13256;49.012;8.610;2022-12-29T11:29:54;13.80;99.90
25320;DHT22;13256;49.012;8.610;2022-12-29T11:32:26;13.80;99.90
25320;DHT22;13256;49.012;8.610;2022-12-29T11:34:57;13.80;99.90
25320;DHT22;13256;49.012;8.610;2022-12-29T11:37:40;14.00;99.90
25320;DHT22;13256;49.012;8.610;2022-12-29T11:40:18;14.10;99.90
25320;DHT22;13256;49.012;8.610;2022-12-29T11:43:30;14.20;99.90
25320;DHT22;13256;49.012;8.610;2022-12-29T11:46:00;14.20;99.90
25320;DHT22;13256;49.012;8.610;2022-12-29T11:48:40;14.10;99.90
25320;DHT22;13256;49.012;8.610;2022-12-29T11:51:11;14.00;99.90
25320;DHT22;13256;49.012;8.610;2022-12-29T11:53:47;14.00;99.90
25320;DHT22;13256;49.012;8.610;2022-12-29T11:56:21;14.10;99.90
25320;DHT22;13256;49.012;8.610;2022-12-29T11:58:50;14.10;99.90
25320;DHT22;13256;49.012;8.610;2022-12-29T12:01:32;14.10;99.90
25320;DHT22;13256;49.012;8.610;2022-12-29T12:04:05;14.10;99.90
25320;DHT22;13256;49.012;8.610;2022-12-29T12:06:38;14.20;99.90
25320;DHT22;13256;49.012;8.610;2022-12-29T12:09:47;14.30;99.90
25320;DHT22;13256;49.012;8.610;2022-12-29T12:15:27;14.30;99.90
25320;DHT22;13256;49.012;8.610;2022-12-29T12:20:56;14.40;99.90
25320;DHT22;13256;49.012;8.610;2022-12-29T12:26:28;14.60;99.90
25320;DHT22;13256;49.012;8.610;2022-12-29T12:29:16;14.70;99.90
25320;DHT22;13256;49.012;8.610;2022-12-29T12:32:04;14.70;99.90
25320;DHT22;13256;49.012;8.610;2022-12-29T12:34:41;14.60;99.90
25320;DHT22;13256;49.012;8.610;2022-12-29T12:41:11;14.40;99.90
25320;DHT22;13256;49.012;8.610;2022-12-29T12:58:59;13.70;99.90
25320;DHT22;13256;49.012;8.610;2022-12-29T13:02:01;13.70;99.90
25320;DHT22;13256;49.012;8.610;2022-12-29T13:11:10;13.90;99.90
25320;DHT22;13256;49.012;8.610;2022-12-29T13:14:13;13.80;99.90
25320;DHT22;13256;49.012;8.610;2022-12-29T13:20:19;13.80;99.90
25320;DHT22;13256;49.012;8.610;2022-12-29T13:28:19;13.60;99.90
25320;DHT22;13256;49.012;8.610;2022-12-29T13:31:15;13.60;99.90
25320;DHT22;13256;49.012;8.610;2022-12-29T13:39:13;13.40;99.90
25320;DHT22;13256;49.012;8.610;2022-12-29T13:44:21;13.30;99.90
25320;DHT22;13256;49.012;8.610;2022-12-29T13:46:51;13.20;99.90
25320;DHT22;13256;49.012;8.610;2022-12-29T13:49:23;13.10;99.90
25320;DHT22;13256;49.012;8.610;2022-12-29T13:57:40;12.60;99.90
25320;DHT22;13256;49.012;8.610;2022-12-29T14:00:13;12.40;99.90
25320;DHT22;13256;49.012;8.610;2022-12-29T14:05:45;12.20;99.90
25320;DHT22;13256;49.012;8.610;2022-12-29T14:08:28;12.10;99.90
25320;DHT22;13256;49.012;8.610;2022-12-29T14:11:10;12.10;99.90
25320;DHT22;13256;49.012;8.610;2022-12-29T14:13:45;12.00;99.90
25320;DHT22;13256;49.012;8.610;2022-12-29T14:16:32;11.90;99.90
25320;DHT22;13256;49.012;8.610;2022-12-29T14:19:27;11.80;99.90
25320;DHT22;13256;49.012;8.610;2022-12-29T14:22:02;11.80;99.90
25320;DHT22;13256;49.012;8.610;2022-12-29T14:27:01;11.60;99.90
25320;DHT22;13256;49.012;8.610;2022-12-29T14:34:55;11.50;99.90
25320;DHT22;13256;49.012;8.610;2022-12-29T14:37:34;11.40;99.90
25320;DHT22;13256;49.012;8.610;2022-12-29T14:40:25;11.30;99.90
25320;DHT22;13256;49.012;8.610;2022-12-29T14:42:56;11.30;99.90
25320;DHT22;13256;49.012;8.610;2022-12-29T14:45:31;11.20;99.90
25320;DHT22;13256;49.012;8.610;2022-12-29T14:48:30;11.10;99.90
25320;DHT22;13256;49.012;8.610;2022-12-29T14:51:34;11.10;99.90
25320;DHT22;13256;49.012;8.610;2022-12-29T15:00:15;10.80;99.90
25320;DHT22;13256;49.012;8.610;2022-12-29T15:06:08;10.80;99.90
25320;DHT22;13256;49.012;8.610;2022-12-29T15:11:31;10.70;99.90
25320;DHT22;13256;49.012;8.610;2022-12-29T15:17:08;10.60;99.90
25320;DHT22;13256;49.012;8.610;2022-12-29T15:19:37;10.60;99.90
25320;DHT22;13256;49.012;8.610;2022-12-29T15:22:04;10.60;99.90
25320;DHT22;13256;49.012;8.610;2022-12-29T15:24:41;10.60;99.90
25320;DHT22;13256;49.012;8.610;2022-12-29T15:27:16;10.60;99.90
25320;DHT22;13256;49.012;8.610;2022-12-29T15:30:00;10.60;99.90
25320;DHT22;13256;49.012;8.610;2022-12-29T15:32:50;10.60;99.90
25320;DHT22;13256;49.012;8.610;2022-12-29T15:35:32;10.50;99.90
25320;DHT22;13256;49.012;8.610;2022-12-29T15:38:24;10.50;99.90
25320;DHT22;13256;49.012;8.610;2022-12-29T15:41:35;10.50;99.90
25320;DHT22;13256;49.012;8.610;2022-12-29T15:44:39;10.40;99.90
25320;DHT22;13256;49.012;8.610;2022-12-29T15:47:50;10.40;99.90
25320;DHT22;13256;49.012;8.610;2022-12-29T15:50:30;10.40;99.90
25320;DHT22;13256;49.012;8.610;2022-12-29T15:52:59;10.30;99.90
25320;DHT22;13256;49.012;8.610;2022-12-29T15:55:35;10.30;99.90
25320;DHT22;13256;49.012;8.610;2022-12-29T15:58:39;10.30;99.90
25320;DHT22;13256;49.012;8.610;2022-12-29T16:01:37;10.30;99.90
25320;DHT22;13256;49.012;8.610;2022-12-29T16:04:44;10.30;99.90
25320;DHT22;13256;49.012;8.610;2022-12-29T16:07:52;10.30;99.90
25320;DHT22;13256;49.012;8.610;2022-12-29T16:10:29;10.30;99.90
25320;DHT22;13256;49.012;8.610;2022-12-29T16:18:52;10.30;99.90
25320;DHT22;13256;49.012;8.610;2022-12-29T16:21:29;10.30;99.90
25320;DHT22;13256;49.012;8.610;2022-12-29T16:24:07;10.30;99.90
25320;DHT22;13256;49.012;8.610;2022-12-29T16:27:14;10.30;99.90
25320;DHT22;13256;49.012;8.610;2022-12-29T16:29:51;10.30;99.90
25320;DHT22;13256;49.012;8.610;2022-12-29T16:32:29;10.30;99.90
25320;DHT22;13256;49.012;8.610;2022-12-29T16:38:18;10.30;99.90
25320;DHT22;13256;49.012;8.610;2022-12-29T16:41:02;10.30;99.90
25320;DHT22;13256;49.012;8.610;2022-12-29T16:43:40;10.30;99.90
25320;DHT22;13256;49.012;8.610;2022-12-29T16:46:22;10.30;99.90
25320;DHT22;13256;49.012;8.610;2022-12-29T16:48:54;10.20;99.90
25320;DHT22;13256;49.012;8.610;2022-12-29T16:51:34;10.20;99.90
25320;DHT22;13256;49.012;8.610;2022-12-29T16:54:35;10.30;99.90
25320;DHT22;13256;49.012;8.610;2022-12-29T16:57:02;10.20;99.90
25320;DHT22;13256;49.012;8.610;2022-12-29T16:59:34;10.20;99.90
25320;DHT22;13256;49.012;8.610;2022-12-29T17:02:15;10.20;99.90
25320;DHT22;13256;49.012;8.610;2022-12-29T17:05:37;10.30;99.90
25320;DHT22;13256;49.012;8.610;2022-12-29T17:20:03;10.20;99.90
25320;DHT22;13256;49.012;8.610;2022-12-29T17:23:00;10.20;99.90
25320;DHT22;13256;49.012;8.610;2022-12-29T17:25:35;10.20;99.90
25320;DHT22;13256;49.012;8.610;2022-12-29T17:30:40;10.20;99.90
25320;DHT22;13256;49.012;8.610;2022-12-29T17:33:13;10.20;99.90
25320;DHT22;13256;49.012;8.610;2022-12-29T17:35:42;10.20;99.90
25320;DHT22;13256;49.012;8.610;2022-12-29T17:38:16;10.10;99.90
25320;DHT22;13256;49.012;8.610;2022-12-29T17:40:49;10.10;99.90
25320;DHT22;13256;49.012;8.610;2022-12-29T17:43:43;10.10;99.90
25320;DHT22;13256;49.012;8.610;2022-12-29T17:46:14;10.10;99.90
25320;DHT22;13256;49.012;8.610;2022-12-29T17:48:45;10.10;99.90
25320;DHT22;13256;49.012;8.610;2022-12-29T17:51:20;10.10;99.90
25320;DHT22;13256;49.012;8.610;2022-12-29T17:53:53;10.00;99.90
25320;DHT22;13256;49.012;8.610;2022-12-29T17:56:23;10.00;99.90
25320;DHT22;13256;49.012;8.610;2022-12-29T17:58:50;10.00;99.90
25320;DHT22;13256;49.012;8.610;2022-12-29T18:01:17;10.00;99.90
25320;DHT22;13256;49.012;8.610;2022-12-29T18:03:51;10.00;99.90
25320;DHT22;13256;49.012;8.610;2022-12-29T18:06:24;9.90;99.90
25320;DHT22;13256;49.012;8.610;2022-12-29T18:08:51;9.90;99.90
25320;DHT22;13256;49.012;8.610;2022-12-29T18:11:41;9.80;99.90
25320;DHT22;13256;49.012;8.610;2022-12-29T18:14:15;9.90;99.90
25320;DHT22;13256;49.012;8.610;2022-12-29T18:16:46;9.80;99.90
25320;DHT22;13256;49.012;8.610;2022-12-29T18:19:16;9.80;99.90
25320;DHT22;13256;49.012;8.610;2022-12-29T18:21:44;9.80;99.90
25320;DHT22;13256;49.012;8.610;2022-12-29T18:24:41;9.80;99.90
25320;DHT22;13256;49.012;8.610;2022-12-29T18:27:13;9.80;99.90
25320;DHT22;13256;49.012;8.610;2022-12-29T18:29:51;9.70;99.90
25320;DHT22;13256;49.012;8.610;2022-12-29T18:32:21;9.70;99.90
25320;DHT22;13256;49.012;8.610;2022-12-29T18:34:47;9.70;99.90
25320;DHT22;13256;49.012;8.610;2022-12-29T18:37:20;9.60;99.90
25320;DHT22;13256;49.012;8.610;2022-12-29T18:40:22;9.60;99.90
25320;DHT22;13256;49.012;8.610;2022-12-29T18:42:49;9.60;99.90
25320;DHT22;13256;49.012;8.610;2022-12-29T18:45:19;9.50;99.90
25320;DHT22;13256;49.012;8.610;2022-12-29T18:47:47;9.50;99.90
25320;DHT22;13256;49.012;8.610;2022-12-29T18:50:17;9.50;99.90
25320;DHT22;13256;49.012;8.610;2022-12-29T18:52:45;9.50;99.90
25320;DHT22;13256;49.012;8.610;2022-12-29T18:55:18;9.50;99.90
25320;DHT22;13256;49.012;8.610;2022-12-29T18:57:52;9.40;99.90
25320;DHT22;13256;49.012;8.610;2022-12-29T19:00:23;9.40;99.90
25320;DHT22;13256;49.012;8.610;2022-12-29T19:02:53;9.40;99.90
25320;DHT22;13256;49.012;8.610;2022-12-29T19:05:34;9.40;99.90
25320;DHT22;13256;49.012;8.610;2022-12-29T19:08:01;9.40;99.90
25320;DHT22;13256;49.012;8.610;2022-12-29T19:10:28;9.30;99.90
25320;DHT22;13256;49.012;8.610;2022-12-29T19:12:54;9.30;99.90
25320;DHT22;13256;49.012;8.610;2022-12-29T19:15:35;9.30;99.90
25320;DHT22;13256;49.012;8.610;2022-12-29T19:18:13;9.30;99.90
25320;DHT22;13256;49.012;8.610;2022-12-29T19:21:04;9.20;99.90